Terminal Aerodrome Forecast
Issued by NWS Mobile, AL

Home | Current Version | Previous Version | Text Only | Print | Product List | Glossary On
Versions: 1 2 3 4 5 6 7 8 9 10 11 12 13 14 15 16 17 18 19 20 21 22 23 24 25 26 27
000
FTUS44 KMOB 231100
TAFPNS
TAF
KPNS 231128Z 2312/2412 11012G19KT 4SM -SHRA BR OVC002
     FM231400 13015G24KT 4SM -SHRA OVC004
     FM231800 19018G28KT 2SM TSRA BKN004 OVC015CB
      TEMPO 2319/2321 VRB25G35KT 1SM +TSRA BKN004 OVC015CB
     FM232300 20013G20KT P6SM -RA SCT007 OVC015=

USA.gov is the U.S. government's official web portal to all federal, state and local government web resources and services.